Time;durP1;ratioP1;P1;durP2;ratioP2;P2;SDS_P1;SDS_P2;PMS_P1;PMS_P2;Temp;Humidity;BMP_temperature;BMP_pressure;BME280_temperature;BME280_humidity;BME280_pressure;Samples;Min_cycle;Max_cycle;Signal;HPM_P1;HPM_P2
2022/02/22 00:04:21;;;;;;;2.30;1.20;;;8.40;36.20;;;;;;10370898;28;20727;-73
2022/02/22 00:09:24;;;;;;;3.10;1.10;;;8.50;36.10;;;;;;10365361;28;20233;-73
2022/02/22 00:14:28;;;;;;;1.93;1.10;;;8.40;36.00;;;;;;10369156;28;20229;-73
2022/02/22 00:19:32;;;;;;;1.97;1.20;;;8.40;36.40;;;;;;10363364;28;20589;-73
2022/02/22 00:24:35;;;;;;;2.13;1.30;;;8.40;36.30;;;;;;10373421;28;20237;-73
2022/02/22 00:29:39;;;;;;;1.50;1.13;;;8.40;36.20;;;;;;10369737;28;20715;-73
2022/02/22 00:34:42;;;;;;;4.17;1.40;;;8.40;36.40;;;;;;10377290;28;20233;-73
2022/02/22 00:39:46;;;;;;;2.87;1.20;;;8.40;36.10;;;;;;10375378;28;20236;-72
2022/02/22 00:44:50;;;;;;;2.67;1.30;;;8.40;36.00;;;;;;10371076;28;20226;-72
2022/02/22 00:49:53;;;;;;;2.70;1.20;;;8.50;36.20;;;;;;10373905;28;20390;-72
2022/02/22 00:54:56;;;;;;;2.50;1.10;;;8.50;36.00;;;;;;10373902;28;20229;-71
2022/02/22 01:00:01;;;;;;;1.77;1.13;;;8.50;36.00;;;;;;10374569;28;20218;-69
2022/02/22 01:05:05;;;;;;;2.63;1.63;;;8.60;36.10;;;;;;10371012;28;20218;-70
2022/02/22 01:10:09;;;;;;;2.33;1.27;;;8.60;36.00;;;;;;10368722;28;20718;-71
2022/02/22 01:15:13;;;;;;;2.97;1.13;;;8.60;36.00;;;;;;10364937;28;20477;-71
2022/02/22 01:20:17;;;;;;;2.10;1.27;;;8.60;36.20;;;;;;10371550;28;20607;-71
2022/02/22 01:25:20;;;;;;;4.10;1.30;;;8.60;36.00;;;;;;10366591;28;20608;-71
2022/02/22 01:30:25;;;;;;;2.37;1.20;;;8.60;36.30;;;;;;10367898;28;20225;-71
2022/02/22 01:35:28;;;;;;;2.63;1.23;;;8.60;36.50;;;;;;10371478;28;20234;-72
2022/02/22 01:40:31;;;;;;;3.43;1.30;;;8.60;36.20;;;;;;10371975;28;20230;-71
2022/02/22 01:45:37;;;;;;;2.57;1.30;;;8.60;36.20;;;;;;10368187;28;20226;-71
2022/02/22 01:50:40;;;;;;;3.83;1.30;;;8.50;36.30;;;;;;10368392;28;20228;-72
2022/02/22 01:55:45;;;;;;;3.77;1.23;;;8.50;36.40;;;;;;10369988;28;20214;-71
2022/02/22 02:00:50;;;;;;;4.03;1.60;;;8.50;36.70;;;;;;10366382;28;20227;-69
2022/02/22 02:05:54;;;;;;;3.07;1.50;;;8.50;36.90;;;;;;10366714;28;20659;-69
2022/02/22 02:10:57;;;;;;;3.47;1.40;;;8.50;36.90;;;;;;10371664;28;20707;-69
2022/02/22 02:16:03;;;;;;;3.77;1.40;;;8.50;37.00;;;;;;10367856;28;20222;-69
2022/02/22 02:21:07;;;;;;;3.97;1.73;;;8.40;37.30;;;;;;10368950;28;20221;-69
2022/02/22 02:26:11;;;;;;;2.03;1.10;;;8.40;37.30;;;;;;10367156;28;20617;-70
2022/02/22 02:31:14;;;;;;;5.23;1.63;;;8.40;37.60;;;;;;10363995;28;20238;-69
2022/02/22 02:36:23;;;;;;;3.33;1.40;;;8.30;37.40;;;;;;10370155;28;20305;-69
2022/02/22 02:41:27;;;;;;;3.43;1.47;;;8.20;37.40;;;;;;10366490;28;20229;-69
2022/02/22 02:46:31;;;;;;;2.37;1.10;;;8.20;38.20;;;;;;10366932;28;20590;-69
2022/02/22 02:51:34;;;;;;;2.07;1.10;;;8.20;38.00;;;;;;10368896;28;20238;-69
2022/02/22 02:56:39;;;;;;;3.23;1.47;;;8.10;37.70;;;;;;10372554;28;20225;-71
2022/02/22 03:01:43;;;;;;;3.37;1.50;;;8.10;38.20;;;;;;10369432;28;20226;-71
2022/02/22 03:06:47;;;;;;;2.37;1.37;;;8.10;38.00;;;;;;10362725;28;20226;-73
2022/02/22 03:11:52;;;;;;;1.97;1.23;;;8.10;37.90;;;;;;10371020;28;20237;-73
2022/02/22 03:16:55;;;;;;;3.73;1.50;;;8.00;37.70;;;;;;10367166;28;20225;-73
2022/02/22 03:21:58;;;;;;;4.63;1.40;;;8.00;37.70;;;;;;10369257;28;20230;-73
2022/02/22 03:27:03;;;;;;;3.43;1.40;;;8.00;37.60;;;;;;10364541;28;20237;-71
2022/02/22 03:32:08;;;;;;;3.47;1.67;;;8.00;37.90;;;;;;10365029;28;20222;-71
2022/02/22 03:37:12;;;;;;;4.77;1.40;;;8.00;37.60;;;;;;10361819;28;20329;-71
2022/02/22 03:42:16;;;;;;;3.80;1.60;;;7.90;37.40;;;;;;10359590;28;20230;-71
2022/02/22 03:47:19;;;;;;;3.60;1.43;;;7.90;37.60;;;;;;10364543;28;20229;-71
2022/02/22 03:52:23;;;;;;;3.40;1.40;;;7.90;37.40;;;;;;10367611;28;20722;-71
2022/02/22 03:57:28;;;;;;;6.73;1.90;;;7.90;37.60;;;;;;10369016;28;20234;-72
2022/02/22 04:02:31;;;;;;;3.30;1.43;;;7.90;37.60;;;;;;10373513;28;20229;-71
2022/02/22 04:07:35;;;;;;;3.13;1.40;;;7.90;37.40;;;;;;10368829;28;20226;-71
2022/02/22 04:12:40;;;;;;;4.60;1.30;;;7.90;37.60;;;;;;10364084;28;20230;-69
2022/02/22 04:17:43;;;;;;;2.40;1.10;;;7.90;38.50;;;;;;10362184;28;20240;-70
2022/02/22 04:22:46;;;;;;;4.50;1.07;;;7.70;37.70;;;;;;10365658;28;20690;-70
2022/02/22 04:27:52;;;;;;;2.83;1.40;;;7.50;38.40;;;;;;10362573;28;20241;-71
2022/02/22 04:32:55;;;;;;;2.73;1.47;;;7.30;38.30;;;;;;10362898;28;20612;-71
2022/02/22 04:37:58;;;;;;;3.27;1.37;;;7.30;37.90;;;;;;10374472;28;20226;-71
2022/02/22 04:43:03;;;;;;;4.30;1.60;;;7.20;37.90;;;;;;10366967;28;20704;-71
2022/02/22 04:48:06;;;;;;;5.10;1.67;;;7.20;38.10;;;;;;10370410;28;20595;-71
2022/02/22 04:53:10;;;;;;;5.27;1.50;;;7.20;37.70;;;;;;10369336;28;20486;-71
2022/02/22 04:58:15;;;;;;;5.20;1.67;;;7.20;37.70;;;;;;10371181;28;20230;-72
2022/02/22 05:03:18;;;;;;;5.03;1.50;;;7.20;38.10;;;;;;10372824;28;20222;-71
2022/02/22 05:08:22;;;;;;;4.33;1.77;;;7.20;38.00;;;;;;10374068;28;20384;-72
2022/02/22 05:13:26;;;;;;;4.47;1.60;;;7.20;38.30;;;;;;10368408;28;20222;-74
2022/02/22 05:18:30;;;;;;;3.33;1.37;;;7.20;38.60;;;;;;10370245;28;20269;-74
2022/02/22 05:23:35;;;;;;;4.13;1.20;;;7.20;38.60;;;;;;10368947;28;20232;-72
2022/02/22 05:28:44;;;;;;;3.20;1.13;;;7.20;38.60;;;;;;10372511;28;20241;-71
2022/02/22 05:33:47;;;;;;;4.63;1.40;;;7.20;38.60;;;;;;10367810;28;20246;-71
2022/02/22 05:38:51;;;;;;;5.27;1.67;;;7.30;38.60;;;;;;10372163;28;20590;-71
2022/02/22 05:43:55;;;;;;;5.00;1.60;;;7.30;38.10;;;;;;10367019;28;20230;-71
2022/02/22 05:48:58;;;;;;;4.27;1.50;;;7.40;38.10;;;;;;10366638;28;20295;-71
2022/02/22 05:54:02;;;;;;;6.00;1.87;;;7.40;37.80;;;;;;10366566;28;20226;-71
2022/02/22 05:59:06;;;;;;;4.37;1.70;;;7.40;37.80;;;;;;10365566;28;20590;-70
2022/02/22 06:04:10;;;;;;;4.03;1.60;;;7.40;38.00;;;;;;10364449;28;20226;-70
2022/02/22 06:09:13;;;;;;;5.53;1.90;;;7.40;37.60;;;;;;10363891;28;20222;-71
2022/02/22 06:14:18;;;;;;;6.40;2.30;;;7.50;37.60;;;;;;10361479;28;20236;-71
2022/02/22 06:19:22;;;;;;;6.60;1.83;;;7.50;37.60;;;;;;10358652;28;20738;-71
2022/02/22 06:24:25;;;;;;;6.13;2.10;;;7.60;37.40;;;;;;10366786;28;20229;-71
2022/02/22 06:29:31;;;;;;;3.63;1.83;;;7.50;37.40;;;;;;10359484;28;20226;-71
2022/02/22 06:34:34;;;;;;;7.37;2.10;;;7.60;37.80;;;;;;10363597;28;20718;-71
2022/02/22 06:39:38;;;;;;;7.60;1.90;;;7.50;37.60;;;;;;10360925;28;20608;-71
2022/02/22 06:44:42;;;;;;;5.07;1.80;;;7.60;37.60;;;;;;10363278;28;20309;-73
2022/02/22 06:49:45;;;;;;;3.93;1.60;;;7.50;37.60;;;;;;10359806;28;20297;-73
2022/02/22 06:54:48;;;;;;;6.07;2.17;;;7.60;37.30;;;;;;10365694;28;20226;-73
2022/02/22 06:59:53;;;;;;;4.47;1.53;;;7.60;37.40;;;;;;10364536;28;20596;-73
2022/02/22 07:04:56;;;;;;;5.83;1.87;;;7.60;37.60;;;;;;10363823;28;20714;-74
2022/02/22 07:09:59;;;;;;;5.80;1.77;;;7.50;37.40;;;;;;10358673;28;20226;-73
2022/02/22 07:15:05;;;;;;;3.53;1.57;;;7.60;37.60;;;;;;10361782;28;20233;-73
2022/02/22 07:20:12;;;;;;;6.07;1.73;;;7.60;37.60;;;;;;10356957;28;20241;-74
2022/02/22 07:25:16;;;;;;;5.07;1.97;;;7.60;37.50;;;;;;10358794;28;20248;-74
2022/02/22 07:30:22;;;;;;;6.50;2.00;;;7.70;37.50;;;;;;10358488;28;20808;-74
2022/02/22 07:35:25;;;;;;;5.63;1.90;;;7.70;37.40;;;;;;10360638;28;20233;-73
2022/02/22 07:40:29;;;;;;;5.10;1.70;;;7.80;37.30;;;;;;10363796;28;20601;-74
2022/02/22 07:45:34;;;;;;;6.87;2.03;;;7.80;37.20;;;;;;10362100;28;20222;-74
2022/02/22 07:50:38;;;;;;;7.47;2.03;;;7.90;37.40;;;;;;10362738;28;20229;-74
2022/02/22 07:55:41;;;;;;;5.70;1.77;;;8.00;37.40;;;;;;10361586;28;20248;-73
2022/02/22 08:00:46;;;;;;;3.10;1.53;;;8.00;37.30;;;;;;10362914;28;20238;-74
2022/02/22 08:05:49;;;;;;;5.07;1.90;;;8.10;37.20;;;;;;10363172;28;20710;-73
2022/02/22 08:10:52;;;;;;;6.67;2.20;;;8.10;37.20;;;;;;10369675;28;20237;-73
2022/02/22 08:15:57;;;;;;;5.17;2.13;;;8.20;37.40;;;;;;10371105;28;20592;-73
2022/02/22 08:21:00;;;;;;;4.23;1.80;;;8.30;37.60;;;;;;10370706;28;20714;-73
2022/02/22 08:26:05;;;;;;;6.30;2.00;;;8.40;37.20;;;;;;10368466;28;20226;-73
2022/02/22 08:31:10;;;;;;;9.53;2.07;;;8.50;37.30;;;;;;10365728;28;20265;-74
2022/02/22 08:36:14;;;;;;;5.67;2.10;;;8.60;37.10;;;;;;10368654;28;20230;-73
2022/02/22 08:41:17;;;;;;;4.57;1.77;;;8.60;37.00;;;;;;10366271;28;20240;-73
2022/02/22 08:46:23;;;;;;;6.60;2.10;;;8.60;37.00;;;;;;10377725;28;20225;-73
2022/02/22 08:51:27;;;;;;;5.93;1.97;;;8.60;36.90;;;;;;10368886;28;20230;-74
2022/02/22 08:56:30;;;;;;;6.77;2.00;;;8.60;36.70;;;;;;10373231;28;20229;-74
2022/02/22 09:01:35;;;;;;;8.37;2.20;;;8.60;36.60;;;;;;10370784;28;20222;-74
2022/02/22 09:06:38;;;;;;;4.80;1.93;;;8.60;36.50;;;;;;10371165;28;20226;-73
2022/02/22 09:11:41;;;;;;;4.60;1.80;;;8.70;36.60;;;;;;10371394;28;20236;-74
2022/02/22 09:16:46;;;;;;;8.50;1.73;;;8.60;36.50;;;;;;10369699;28;20238;-74
2022/02/22 09:21:49;;;;;;;6.60;2.00;;;8.70;36.50;;;;;;10368317;28;20305;-73
2022/02/22 09:26:52;;;;;;;6.63;2.10;;;8.70;36.60;;;;;;10365845;28;20223;-74
2022/02/22 09:31:57;;;;;;;6.23;1.83;;;8.70;36.50;;;;;;10369356;28;20241;-74
2022/02/22 09:37:03;;;;;;;6.50;2.00;;;8.70;36.00;;;;;;10364826;28;20231;-73
2022/02/22 09:42:08;;;;;;;6.33;1.97;;;8.80;36.50;;;;;;10364912;28;20230;-73
2022/02/22 09:47:13;;;;;;;8.00;2.80;;;8.80;36.30;;;;;;10361596;28;20357;-73
2022/02/22 09:52:16;;;;;;;5.43;1.90;;;8.80;36.50;;;;;;10360579;28;20218;-70
2022/02/22 09:57:19;;;;;;;5.93;2.00;;;8.80;36.60;;;;;;10367006;28;20231;-70
2022/02/22 10:02:24;;;;;;;5.87;2.27;;;8.80;36.20;;;;;;10363731;28;20304;-70
2022/02/22 10:07:31;;;;;;;5.97;2.20;;;8.80;36.00;;;;;;10365979;28;20673;-70
2022/02/22 10:12:36;;;;;;;7.00;1.90;;;8.80;36.80;;;;;;10364365;28;20310;-70
2022/02/22 10:17:41;;;;;;;4.67;1.97;;;8.80;35.80;;;;;;10361985;28;20237;-70
2022/02/22 10:22:50;;;;;;;7.00;2.10;;;8.80;35.80;;;;;;10366900;28;20586;-70
2022/02/22 10:27:54;;;;;;;4.73;2.00;;;8.80;35.40;;;;;;10362572;28;20234;-70
2022/02/22 10:33:01;;;;;;;6.43;2.43;;;8.90;35.50;;;;;;10364229;28;20312;-70
2022/02/22 10:38:12;;;;;;;7.43;2.20;;;8.90;35.30;;;;;;10365551;28;20707;-70
2022/02/22 10:43:24;;;;;;;4.60;1.80;;;9.00;34.30;;;;;;10362407;28;20660;-70
2022/02/22 10:48:39;;;;;;;4.17;1.60;;;9.10;34.10;;;;;;10367912;28;20730;-70
2022/02/22 10:53:44;;;;;;;6.27;1.90;;;9.20;34.50;;;;;;10363518;28;20332;-70
2022/02/22 10:58:47;;;;;;;5.47;1.80;;;9.20;34.20;;;;;;10364693;28;20241;-69
2022/02/22 11:03:53;;;;;;;6.50;1.90;;;9.30;34.30;;;;;;10359983;28;20218;-69
2022/02/22 11:08:57;;;;;;;6.40;2.27;;;9.30;34.20;;;;;;10368642;28;20226;-69
2022/02/22 11:14:25;;;;;;;4.70;1.93;;;9.30;34.30;;;;;;10366750;28;20248;-69
2022/02/22 11:19:37;;;;;;;4.27;2.00;;;9.30;33.90;;;;;;10363836;28;20257;-69
2022/02/22 11:24:46;;;;;;;4.13;1.80;;;9.40;34.00;;;;;;10363900;28;20224;-69
2022/02/22 11:29:57;;;;;;;4.20;1.57;;;9.40;34.30;;;;;;10361840;28;20313;-69
2022/02/22 11:35:21;;;;;;;3.93;1.60;;;9.50;34.30;;;;;;10361456;28;20311;-69
2022/02/22 11:40:26;;;;;;;5.40;1.90;;;9.60;34.00;;;;;;10363166;28;20313;-69
2022/02/22 11:45:29;;;;;;;4.20;1.80;;;9.60;33.80;;;;;;10360871;28;20237;-69
2022/02/22 11:50:41;;;;;;;4.17;2.03;;;9.70;34.10;;;;;;10361603;28;20222;-69
2022/02/22 11:55:44;;;;;;;5.30;2.37;;;9.70;33.60;;;;;;10358205;28;20628;-69
2022/02/22 12:00:48;;;;;;;7.20;2.80;;;9.70;34.50;;;;;;10361633;28;20527;-70
2022/02/22 12:05:56;;;;;;;5.17;1.97;;;9.80;34.70;;;;;;10356580;28;21046;-69
2022/02/22 12:11:02;;;;;;;5.27;1.97;;;10.00;33.20;;;;;;10360918;28;20231;-69
2022/02/22 12:16:13;;;;;;;2.47;1.77;;;10.10;32.80;;;;;;10362578;28;20218;-69
2022/02/22 12:21:19;;;;;;;4.83;1.77;;;10.20;32.40;;;;;;10353458;28;20548;-69
2022/02/22 12:26:25;;;;;;;4.10;1.80;;;10.30;32.70;;;;;;10353176;28;20340;-69
2022/02/22 12:31:31;;;;;;;6.80;2.30;;;10.40;32.40;;;;;;10351725;28;20222;-69
2022/02/22 12:36:37;;;;;;;6.03;1.57;;;10.50;32.40;;;;;;10347712;28;20226;-70
2022/02/22 12:41:47;;;;;;;7.53;1.90;;;10.50;32.20;;;;;;10351300;28;20227;-70
2022/02/22 12:46:52;;;;;;;4.70;1.73;;;10.50;32.00;;;;;;10349853;28;20631;-71
2022/02/22 12:52:01;;;;;;;6.10;2.27;;;10.50;32.20;;;;;;10350709;28;20721;-71
2022/02/22 12:57:05;;;;;;;4.07;1.70;;;10.50;32.40;;;;;;10357122;28;20229;-71
2022/02/22 13:02:09;;;;;;;6.37;1.70;;;10.60;32.80;;;;;;10357564;28;20723;-71
2022/02/22 13:07:15;;;;;;;5.20;1.87;;;10.60;32.50;;;;;;10365234;28;20226;-71
2022/02/22 13:12:28;;;;;;;4.50;1.70;;;10.70;32.10;;;;;;10363213;28;20249;-71
2022/02/22 13:17:32;;;;;;;3.93;1.70;;;10.80;32.00;;;;;;10364437;28;20232;-71
2022/02/22 13:22:40;;;;;;;3.47;1.53;;;10.90;32.40;;;;;;10362090;28;20253;-71
2022/02/22 13:27:44;;;;;;;4.07;1.80;;;11.00;31.80;;;;;;10359834;28;20226;-71
2022/02/22 13:33:06;;;;;;;4.77;1.70;;;11.10;32.40;;;;;;10360991;28;20678;-71
2022/02/22 13:38:19;;;;;;;3.57;1.60;;;11.20;32.00;;;;;;10355664;28;20234;-71
2022/02/22 13:43:32;;;;;;;5.30;1.73;;;11.20;31.40;;;;;;10329976;28;20238;-71
2022/02/22 13:48:39;;;;;;;3.90;1.43;;;11.20;31.90;;;;;;10316392;28;20253;-71
2022/02/22 13:53:43;;;;;;;3.20;1.60;;;11.20;32.10;;;;;;10320638;28;20238;-71
2022/02/22 13:58:46;;;;;;;5.90;1.90;;;11.20;31.70;;;;;;10303630;28;20727;-71
2022/02/22 14:03:49;;;;;;;3.40;1.40;;;11.20;32.20;;;;;;10307269;28;20231;-71
2022/02/22 14:08:54;;;;;;;2.63;1.60;;;11.20;32.10;;;;;;10308825;28;20227;-71
2022/02/22 14:13:57;;;;;;;3.63;1.40;;;11.30;31.70;;;;;;10301909;28;20223;-72
2022/02/22 14:19:02;;;;;;;3.17;1.50;;;11.40;31.90;;;;;;10303170;28;20232;-72
2022/02/22 14:24:08;;;;;;;2.70;1.20;;;11.40;32.00;;;;;;10311993;28;20700;-72
2022/02/22 14:29:11;;;;;;;3.10;1.60;;;11.40;31.90;;;;;;10305576;28;20246;-72
2022/02/22 14:34:14;;;;;;;4.97;1.50;;;11.50;32.10;;;;;;10313348;28;20222;-72
2022/02/22 14:39:19;;;;;;;3.67;1.57;;;11.60;32.10;;;;;;10311845;28;20321;-72
2022/02/22 14:44:22;;;;;;;4.33;2.43;;;11.60;31.60;;;;;;10319387;28;20226;-72
2022/02/22 14:49:25;;;;;;;8.73;4.13;;;11.60;31.80;;;;;;10315399;28;20234;-72
2022/02/22 14:54:30;;;;;;;5.73;3.53;;;11.60;32.00;;;;;;10320356;28;20223;-72
2022/02/22 14:59:34;;;;;;;4.80;2.83;;;11.60;31.90;;;;;;10317840;28;20244;-72
2022/02/22 15:04:37;;;;;;;5.23;2.40;;;11.70;32.10;;;;;;10320386;28;20219;-72
2022/02/22 15:09:42;;;;;;;4.40;2.00;;;11.70;32.10;;;;;;10326022;28;20227;-72
2022/02/22 15:14:45;;;;;;;4.03;2.40;;;11.70;32.20;;;;;;10322933;28;20218;-70
2022/02/22 15:19:49;;;;;;;2.87;1.60;;;11.70;32.30;;;;;;10326672;28;20233;-72
2022/02/22 15:24:53;;;;;;;5.73;2.50;;;11.70;32.30;;;;;;10345379;28;20222;-72
2022/02/22 15:29:56;;;;;;;4.33;2.33;;;11.70;32.30;;;;;;10359183;28;20228;-72
2022/02/22 15:34:59;;;;;;;3.07;2.57;;;11.70;32.40;;;;;;10364323;28;20288;-72
2022/02/22 15:40:07;;;;;;;4.47;2.60;;;11.60;32.40;;;;;;10359127;28;20229;-72
2022/02/22 15:45:11;;;;;;;4.73;2.67;;;11.60;32.30;;;;;;10360237;28;20229;-72
2022/02/22 15:50:14;;;;;;;3.17;2.37;;;11.60;32.50;;;;;;10359653;28;20234;-72
2022/02/22 15:55:18;;;;;;;3.70;2.40;;;11.70;32.30;;;;;;10333929;28;20235;-72
2022/02/22 16:00:22;;;;;;;2.83;2.40;;;11.60;32.10;;;;;;10319796;28;20257;-72
2022/02/22 16:05:25;;;;;;;5.73;2.30;;;11.60;32.20;;;;;;10318349;28;20234;-72
2022/02/22 16:10:30;;;;;;;4.30;2.00;;;11.60;32.20;;;;;;10322901;28;20226;-72
2022/02/22 16:15:33;;;;;;;4.57;2.70;;;11.60;32.30;;;;;;10321000;28;20231;-72
2022/02/22 16:20:36;;;;;;;4.17;1.90;;;11.60;32.50;;;;;;10321299;28;20230;-72
2022/02/22 16:25:41;;;;;;;3.90;2.20;;;11.60;32.50;;;;;;10321424;28;20233;-72
2022/02/22 16:30:44;;;;;;;6.07;2.70;;;11.50;32.50;;;;;;10322509;28;20238;-72
2022/02/22 16:35:47;;;;;;;2.13;1.80;;;11.50;32.70;;;;;;10331599;28;20237;-72
2022/02/22 16:40:52;;;;;;;3.23;2.10;;;11.50;32.70;;;;;;10326602;28;20735;-72
2022/02/22 16:45:55;;;;;;;2.43;1.80;;;11.50;32.60;;;;;;10328066;28;20215;-72
2022/02/22 16:51:00;;;;;;;4.37;2.00;;;11.50;32.70;;;;;;10328638;28;20621;-72
2022/02/22 16:56:06;;;;;;;2.67;1.60;;;11.50;32.80;;;;;;10334462;28;20228;-72
2022/02/22 17:01:09;;;;;;;2.37;1.70;;;11.40;32.80;;;;;;10331622;28;20635;-72
2022/02/22 17:06:12;;;;;;;7.57;3.00;;;11.40;32.80;;;;;;10323907;28;20223;-72
2022/02/22 17:11:17;;;;;;;3.67;1.70;;;11.40;33.10;;;;;;10327567;28;20223;-74
2022/02/22 17:16:20;;;;;;;4.57;2.57;;;11.40;33.10;;;;;;10324347;28;20601;-74
2022/02/22 17:21:25;;;;;;;4.87;2.03;;;11.30;33.10;;;;;;10354259;28;20229;-73
2022/02/22 17:26:31;;;;;;;5.17;1.77;;;11.30;33.20;;;;;;10367615;28;20285;-73
2022/02/22 17:31:34;;;;;;;5.43;3.83;;;11.30;33.20;;;;;;10367445;28;20222;-73
2022/02/22 17:36:38;;;;;;;7.17;2.77;;;11.30;33.10;;;;;;10363208;28;20234;-71
2022/02/22 17:41:44;;;;;;;6.70;2.57;;;11.30;33.10;;;;;;10360074;28;20222;-71
2022/02/22 17:46:48;;;;;;;6.10;3.20;;;11.30;33.00;;;;;;10364486;28;20245;-71
2022/02/22 17:51:51;;;;;;;5.87;3.00;;;11.30;33.10;;;;;;10367994;28;20226;-71
2022/02/22 17:56:55;;;;;;;5.63;2.70;;;11.20;33.00;;;;;;10364727;28;20230;-72
2022/02/22 18:01:59;;;;;;;5.83;3.20;;;11.20;33.00;;;;;;10365323;28;20226;-71
2022/02/22 18:07:02;;;;;;;8.43;4.13;;;11.30;33.00;;;;;;10365539;28;20238;-71
2022/02/22 18:12:08;;;;;;;5.53;3.27;;;11.20;32.90;;;;;;10337008;28;20268;-70
2022/02/22 18:17:13;;;;;;;6.37;2.97;;;11.30;32.80;;;;;;10324404;28;20227;-70
2022/02/22 18:22:16;;;;;;;5.97;2.80;;;11.30;32.80;;;;;;10324565;28;20237;-70
2022/02/22 18:27:21;;;;;;;9.10;2.83;;;11.30;32.70;;;;;;10323828;28;20549;-71
2022/02/22 18:32:24;;;;;;;6.20;2.57;;;11.30;32.80;;;;;;10325962;28;20230;-70
2022/02/22 18:37:28;;;;;;;5.87;2.60;;;11.30;32.80;;;;;;10361685;28;20714;-70
2022/02/22 18:42:33;;;;;;;7.90;2.97;;;11.30;33.50;;;;;;10366172;28;20226;-71
2022/02/22 18:47:37;;;;;;;6.33;2.73;;;11.20;32.60;;;;;;10366871;28;20237;-71
2022/02/22 18:52:40;;;;;;;6.13;3.20;;;11.20;32.50;;;;;;10364604;28;20230;-71
2022/02/22 18:57:45;;;;;;;5.70;2.70;;;11.20;32.60;;;;;;10366648;28;20230;-71
2022/02/22 19:02:48;;;;;;;7.23;2.70;;;11.20;32.50;;;;;;10365820;28;20545;-71
2022/02/22 19:07:51;;;;;;;7.60;3.47;;;11.20;32.70;;;;;;10365925;28;20234;-71
2022/02/22 19:12:58;;;;;;;12.37;5.93;;;11.10;32.80;;;;;;10366600;28;20253;-71
2022/02/22 19:18:01;;;;;;;12.07;5.23;;;11.10;33.20;;;;;;10363816;28;21563;-71
2022/02/22 19:23:07;;;;;;;10.17;4.07;;;11.00;33.20;;;;;;10369792;28;20238;-71
2022/02/22 19:28:12;;;;;;;8.00;2.97;;;10.90;33.20;;;;;;10348089;28;20619;-71
2022/02/22 19:33:15;;;;;;;6.50;2.20;;;10.90;33.30;;;;;;10322472;28;20234;-71
2022/02/22 19:38:18;;;;;;;8.07;3.00;;;10.90;33.30;;;;;;10325132;28;20234;-71
2022/02/22 19:43:23;;;;;;;5.50;2.63;;;10.80;33.30;;;;;;10327648;28;20234;-71
2022/02/22 19:48:26;;;;;;;7.77;2.60;;;10.80;33.50;;;;;;10325906;28;20235;-71
2022/02/22 19:53:29;;;;;;;8.43;2.80;;;10.70;33.60;;;;;;10324112;28;20237;-71
2022/02/22 19:58:34;;;;;;;6.17;2.70;;;10.70;33.70;;;;;;10351086;28;20687;-73
2022/02/22 20:03:37;;;;;;;8.43;2.87;;;10.70;33.60;;;;;;10369892;28;20218;-73
2022/02/22 20:08:40;;;;;;;4.73;2.10;;;10.70;33.70;;;;;;10359972;28;20234;-73
2022/02/22 20:13:50;;;;;;;8.17;2.60;;;10.60;33.70;;;;;;10358566;28;20254;-73
2022/02/22 20:18:53;;;;;;;7.60;2.77;;;10.60;33.90;;;;;;10366425;28;20266;-73
2022/02/22 20:23:56;;;;;;;6.80;2.40;;;10.60;34.00;;;;;;10366589;28;20440;-73
2022/02/22 20:29:01;;;;;;;6.60;2.50;;;10.60;33.80;;;;;;10331993;28;20738;-73
2022/02/22 20:34:04;;;;;;;6.23;2.73;;;10.60;34.00;;;;;;10326505;28;20230;-73
2022/02/22 20:39:07;;;;;;;7.03;2.37;;;10.60;34.10;;;;;;10354745;28;20654;-73
2022/02/22 20:44:12;;;;;;;5.27;2.30;;;10.60;33.90;;;;;;10348011;28;20471;-73
2022/02/22 20:49:15;;;;;;;8.50;2.70;;;10.60;34.00;;;;;;10354840;28;20284;-73
2022/02/22 20:54:19;;;;;;;4.40;2.13;;;10.60;34.00;;;;;;10358532;28;20226;-73
2022/02/22 20:59:27;;;;;;;5.27;2.37;;;10.60;34.10;;;;;;10353896;28;20241;-73
2022/02/22 21:04:31;;;;;;;9.67;2.60;;;10.60;34.20;;;;;;10352049;28;20230;-73
2022/02/22 21:09:34;;;;;;;5.40;2.33;;;10.60;34.30;;;;;;10353636;28;21636;-73
2022/02/22 21:14:40;;;;;;;7.60;2.10;;;10.60;34.20;;;;;;10352204;28;20226;-73
2022/02/22 21:19:44;;;;;;;6.77;3.07;;;10.70;34.20;;;;;;10350733;28;20234;-73
2022/02/22 21:24:47;;;;;;;10.43;3.40;;;10.70;34.20;;;;;;10353417;28;20404;-73
2022/02/22 21:29:52;;;;;;;6.87;3.37;;;10.70;34.30;;;;;;10351869;28;20241;-73
2022/02/22 21:34:57;;;;;;;6.77;2.97;;;10.80;34.40;;;;;;10359218;28;20611;-73
2022/02/22 21:40:02;;;;;;;7.83;2.33;;;10.80;34.30;;;;;;10356772;28;20222;-73
2022/02/22 21:45:09;;;;;;;4.87;2.20;;;10.80;34.20;;;;;;10357556;28;20600;-73
2022/02/22 21:50:12;;;;;;;6.47;2.10;;;10.80;34.40;;;;;;10352296;28;20657;-71
2022/02/22 21:55:16;;;;;;;6.50;2.30;;;10.80;34.50;;;;;;10353117;28;20234;-73
2022/02/22 22:00:20;;;;;;;5.60;2.07;;;10.80;34.60;;;;;;10349229;28;20761;-73
2022/02/22 22:05:24;;;;;;;4.80;2.00;;;10.80;34.60;;;;;;10349534;28;20273;-71
2022/02/22 22:10:27;;;;;;;6.80;2.10;;;10.80;34.60;;;;;;10354048;28;20234;-70
2022/02/22 22:15:32;;;;;;;6.27;2.47;;;10.80;34.60;;;;;;10349811;28;20230;-71
2022/02/22 22:20:35;;;;;;;4.53;1.87;;;10.70;34.50;;;;;;10350336;28;20885;-71
2022/02/22 22:25:38;;;;;;;4.53;1.93;;;10.70;34.50;;;;;;10350228;28;20614;-71
2022/02/22 22:30:43;;;;;;;7.20;2.23;;;10.70;34.50;;;;;;10352021;28;20237;-71
2022/02/22 22:35:48;;;;;;;5.87;2.10;;;10.70;34.50;;;;;;10353485;28;20234;-71
2022/02/22 22:41:11;;;;;;;4.03;1.73;;;10.80;34.60;;;;;;10358762;28;20229;-71
2022/02/22 22:46:16;;;;;;;7.53;2.20;;;10.80;34.60;;;;;;10362683;28;20230;-71
2022/02/22 22:51:20;;;;;;;4.43;2.03;;;10.80;34.60;;;;;;10359003;28;20222;-71
2022/02/22 22:56:23;;;;;;;5.07;1.90;;;10.80;34.60;;;;;;10356160;28;20967;-71
2022/02/22 23:01:28;;;;;;;5.77;1.87;;;10.80;34.60;;;;;;10369092;28;20234;-71
2022/02/22 23:17:15;;;;;;;5.60;1.90;;;10.70;34.80;;;;;;10364064;28;20237;-70
2022/02/22 23:22:18;;;;;;;4.63;2.00;;;10.70;35.00;;;;;;10364358;28;20230;-70
2022/02/22 23:27:21;;;;;;;4.00;2.10;;;10.70;35.00;;;;;;10362313;28;20610;-70
2022/02/22 23:32:26;;;;;;;4.60;1.77;;;10.70;35.00;;;;;;10366580;28;20225;-71
2022/02/22 23:37:29;;;;;;;4.30;1.47;;;10.70;35.30;;;;;;10364138;28;20234;-70
2022/02/22 23:42:32;;;;;;;5.50;1.90;;;10.60;36.00;;;;;;10363674;28;20234;-70
2022/02/22 23:47:37;;;;;;;6.83;2.20;;;10.60;35.40;;;;;;10361136;28;20237;-70
2022/02/22 23:52:40;;;;;;;4.93;1.83;;;10.60;35.50;;;;;;10367292;28;20710;-70
2022/02/22 23:57:44;;;;;;;4.07;1.80;;;10.60;35.50;;;;;;10361657;28;20234;-71
